Andrews, SC

9:48 PM EDT on July 11, 2014 (GMT -0400)
Spring Gully (KSCGEORG8) Elev 20 ft | 33.38 °N, 79.42 °W | Change Station

Current weather conditions updated 13 minutes ago

Scattered Clouds
Scattered Clouds
76.4 °F
Feels Like 76 °F
N
0.0
Wind Variable Wind from SE
Gusts 0.0 mph

Tomorrow is forecast to be Warmer than today. Showers and thunderstorms late.

Today
High -- | Low -- °F
--% Chance of Precip.
Yesterday
High -- | Low -- °F
Precip. -- in
6:17 AM 8:30 PM
Full, 100% visible
Pressure 30.19 in
Visibility 10.0 miles
Clouds Scattered Clouds 2100 ft
Scattered Clouds 8500 ft
Heat Index 76 °F
Dew Point 75 °F
Humidity 95%
Rainfall 0.05 in
Snow Depth Not available.
UV 0 out of 12
Pollen .50 out of 12
Air Quality Not available.
Flu Activity Sporadic
METAR KGGE 120135Z AUTO 00000KT 10SM SCT021 SCT085 24/23 A3019 RMK AO2

More Conditions Fewer Conditions

Pressure 30.19 in
Visibility 10.0 miles
Clouds Scattered Clouds 2100 ft
Scattered Clouds 8500 ft
Heat Index 76 °F
Dew Point 75 °F
Humidity 95%
Rainfall 0.05 in
Snow Depth Not available.
UV 0 out of 12
Pollen .50 out of 12
Air Quality Not available.
Flu Activity Sporadic
METAR KGGE 120135Z AUTO 00000KT 10SM SCT021 SCT085 24/23 A3019 RMK AO2

More Conditions Fewer Conditions

10-Day Weather Forecast

Almanac

Astronomy

Jul. 11, 2014 Rise Set
Actual Time 6:17 AM EDT 8:30 PM EDT
Civil Twilight 5:48 AM EDT 8:58 PM EDT
Nautical Twilight 5:13 AM EDT 9:33 PM EDT
Astronomical Twilight 4:36 AM EDT 10:10 PM EDT
Moon 7:42 PM EDT (7/11) 5:24 AM EDT (7/11)
Length of Visible Light 15h 10m
Length of Day
14h 13m
Tomorrow will be 0m 55s shorter.
Full, 100% of the Moon is Illuminated
Today
Full
Jul 12
Full
Jul 18
Last Quarter
Jul 26
New
Aug 3
First Quarter

Today's Extremes

State Highs State Lows

Community

WunderPhotos

Upload Photos

1,732,634 photos uploaded!

WunderBlogs® & News

Nearby

Snow Depth

Station Depth Elevation
No new snow has been reported.

Earthquake Activity

City Distance Mag. Time & Date
No recent earthquake activity has been reported nearby.
Minimum magnitude displayed is 2.5.

Coastal Water Temperatures

Place Temperature
Springmaid Pier, SC 82.9 °F

Nearby Weather Stations

Station Location Temp. Heat Index Dew Point Humidity Wind Precip. Elev Updated Type
Spring Gully, Georgetown, SC 76.4 °F 76 °F 75 °F 95% SE  at  0.0 mph 0.00 in / hr 20 ft 9:35 PM EDT Normal
Browns Ferry, Georgetown, SC 75.9 °F 75 °F 74 °F 95% NNW  at  0.0 mph 0.00 in / hr 13 ft 9:45 PM EDT Normal
Debordieu, Georgetown, SC 75.1 °F 73 °F 74 °F 95% NE  at  0.0 mph 0.00 in / hr 36 ft 9:42 PM EDT Normal
MesoWest NERRS METEOROLOGICAL SITE AT NO, Georgetown, SC 79 °F 82 °F 72 °F 80% SE  at  4 mph 0.00 in / hr -2 ft 8:45 PM EDT MADIS

Show More Stations Show Fewer Stations